Flight Track Log - Related Links

Times and Time Zones

All times are in EDT time to prevent confusion due to time zone crossing. See the SWA554 flight status page for this flight to view local times or setup timezone preferences in your user account.

Time Position Orientation Groundspeed Altitude Reporting Facility
EDT Latitude Longitude Course Direction KTS MPH feet Rate Location/Type
Thu 05:14:59 PM 39.1333 -76.6333 90° East 171 197 2,200  Level Potomac TRACON
Thu 05:16:39 PM 39.1183 -76.5144 99° East 242 278 5,900 2,700 Climbing Washington Center
Thu 05:17:39 PM 39.1317 -76.4050 81° East 270 311 9,400 3,176 Climbing Washington Center
Thu 05:18:38 PM 39.1447 -76.2847 82° East 314 361 12,200 2,850 Climbing Washington Center
Thu 05:19:39 PM 39.1622 -76.1592 80° East 363 418 15,100 2,900 Climbing Washington Center
Thu 05:20:00 PM 39.1667 -76.6058 90° East  Level FlightAware Approximate
Thu 05:20:38 PM 39.1772 -76.0172 82° East 390 449 18,000  Level Washington Center
Thu 05:21:38 PM 39.2028 -75.8756 77° East 401 461 20,900 2,650 Climbing Washington Center
Thu 05:22:38 PM 39.2842 -75.7631 47° Northeast 392 451 23,300 2,500 Climbing Washington Center
Thu 05:23:38 PM 39.3697 -75.6533 45° Northeast 413 475 25,900 2,300 Climbing Washington Center
Thu 05:24:38 PM 39.4553 -75.5431 45° Northeast 418 481 27,900 1,750 Climbing Washington Center
Thu 05:25:38 PM 39.5447 -75.4247 46° Northeast 433 498 29,400 1,613 Climbing Washington Center
Thu 05:27:18 PM 39.6914 -75.2303 46° Northeast 460 529 32,200 1,538 Climbing New York Center
Thu 05:28:18 PM 39.7778 -75.1008 49° Northeast 473 544 33,500 1,261 Climbing New York Center
Thu 05:29:17 PM 39.8700 -74.9714 47° Northeast 481 554 34,700 1,664 Climbing New York Center
Thu 05:30:17 PM 39.9708 -74.8256 48° Northeast 486 559 36,800 1,636 Climbing New York Center
Thu 05:31:18 PM 40.0703 -74.7256 38° Northeast 467 537 38,000 1,109 Climbing New York Center
Thu 05:32:16 PM 40.1903 -74.6889 13° North 435 501 39,000 504 Climbing New York Center
Thu 05:33:17 PM 40.3106 -74.6442 16° North 435 501 39,000  Level New York Center
Thu 05:34:18 PM 40.4306 -74.6044 14° North 442 509 39,000 -28 Level New York Center
Thu 05:36:50 PM 40.7142 -74.5075 15° North 435 501 38,900 -29 Descending Boston Center
Thu 05:37:47 PM 40.8317 -74.4644 15° North 435 501 38,900  Level Boston Center
Thu 05:38:47 PM 40.9511 -74.4269 13° North 435 501 38,900  Level Boston Center
Thu 05:40:01 PM 41.0853 -74.3869 13° North 435 501 38,900  Level Boston Center
Thu 05:40:58 PM 41.2236 -74.3417 14° North 434 499 38,900 51 Level Boston Center
Thu 05:41:59 PM 41.3306 -74.3006 16° North 434 499 39,000 49 Climbing Boston Center
Thu 05:43:00 PM 41.4478 -74.2597 15° North 434 499 39,000 -49 Level Boston Center
Thu 05:44:01 PM 41.5819 -74.2164 14° North 434 499 38,900 -407 Descending Boston Center
Thu 05:44:58 PM 41.6994 -74.1750 15° North 434 499 38,200 -1,744 Descending Boston Center
Thu 05:45:58 PM 41.8103 -74.1419 13° North 422 486 35,500 -2,346 Descending Boston Center
Thu 05:47:11 PM 41.9528 -74.0900 15° North 422 486 33,000 -1,567 Descending Boston Center
Thu 05:48:12 PM 42.0764 -74.0483 14° North 434 499 32,000 -1,488 Descending Boston Center
Thu 05:49:12 PM 42.1981 -74.0011 16° North 444 511 30,000 -1,966 Descending Boston Center
Thu 05:50:11 PM 42.3236 -73.9592 14° North 454 522 28,100 -1,916 Descending Boston Center
Thu 05:51:11 PM 42.4331 -73.8664 32° Northeast 454 522 26,200 -1,059 Descending Boston Center
Thu 05:52:10 PM 42.4769 -73.6900 71° East 440 506 26,000 -100 Descending Boston Center
Thu 05:53:11 PM 42.5203 -73.5161 71° East 451 519 26,000 -541 Level Boston Center
Thu 05:54:12 PM 42.5617 -73.3336 73° East 466 536 24,900 -1,686 Descending Boston Center
Thu 05:55:12 PM 42.6003 -73.1594 73° East 502 578 22,600 -2,186 Descending Boston Center
Thu 05:56:10 PM 42.6367 -73.0158 71° East 471 542 20,600 -2,034 Descending Boston Center
Thu 05:57:10 PM 42.6706 -72.8522 74° East 453 521 18,600 -1,835 Descending Boston Center
Thu 05:58:11 PM 42.6961 -72.6972 77° East 428 493 16,900 -1,820 Descending Boston Center
Thu 05:59:12 PM 42.7214 -72.5447 77° East 415 478 14,900 -1,918 Descending Boston Center
Thu 06:00:13 PM 42.7464 -72.3919 77° East 410 472 13,000 -1,983 Descending Boston Center
Thu 06:01:10 PM 42.7711 -72.2308 78° East 410 472 11,000 -1,246 Descending Boston Center
Thu 06:02:23 PM 42.7939 -72.0922 77° East 393 452 10,300 -1,083 Descending Boston Center
Thu 06:03:23 PM 42.7931 -71.9364 90° East 349 402 8,600 -1,339 Descending Boston Center
Thu 06:04:24 PM 42.7883 -71.8206 93° East 343 395 7,600 -1,160 Descending Boston Center
Thu 06:05:22 PM 42.7856 -71.7017 92° East 308 354 6,300 -1,424 Descending Boston Center
Thu 06:06:22 PM 42.7808 -71.6056 94° East 279 321 4,800 -1,289 Descending Boston Center
Thu 06:07:23 PM 42.7864 -71.5008 86° East 259 298 3,700 -984 Descending Boston Center
Thu 06:08:24 PM 42.7981 -71.4300 77° East 223 257 2,800 -694 Descending Boston Center
Thu 06:09:24 PM 42.8394 -71.3867 38° Northeast 160 184 2,300 -763 Descending Boston Center
Thu 06:10:22 PM 42.8708 -71.3975 346° North 135 155 1,300 -850 Descending Boston Center
Thu 06:11:24 PM 42.9044 -71.4197 334° Northwest 128 147 600 -450 Descending Boston Center
Thu 06:12:22 PM 42.9378 -71.4361 340° North 128 147 400 4,271 Descending Boston Center
Thu 06:13:22 PM 42.9692 -71.4583 333° Northwest 128 147 9,000 4,264 Climbing Boston Center
Thu 06:14:23 PM 43.0008 -71.4778 336° Northwest 128 147 9,000  Level Boston Center
Thu 06:15:24 PM 43.0322 -71.5000 333° Northwest 128 147 9,000  Level Boston Center
Thu 06:17:00 PM 42.9328 -71.4358 166° South  Level Estimated
Thu 06:24:00 PM 42.9328 -71.4358 166° South  Level Estimated
Thu 06:25:00 PM 42.9328 -71.4358 166° South  Level Estimated
Thu 06:26:00 PM 42.9328 -71.4358 166° South  Level Estimated
Thu 06:27:00 PM 42.9328 -71.4358 166° South  Level Estimated
Thu 06:28:00 PM 42.9328 -71.4358 166° South  Level Estimated

Login

Don't have an account? Register now (free) for customized features, flight alerts, and more!